Terminal Aerodrome Forecast
Issued by NWS

Home | Current Version | Previous Version | Text Only | Print | Product List | Glossary On
Versions: 1 2 3 4 5 6 7 8 9 10 11 12 13 14 15 16
680
FTUS45 KTFX 171120
TAFGTF
TAF
KGTF 171120Z 1712/1812 22008KT 6SM FU FEW110 FEW250
     FM171800 28010G18KT P6SM SKC
     FM180100 31008KT P6SM SKC=

USA.gov is the U.S. government's official web portal to all federal, state and local government web resources and services.